Terminal Aerodrome Forecast
Issued by NWS

Home | Current Version | Previous Version | Text Only | Print | Product List | Glossary On
Versions: 1 2 3 4 5 6 7 8 9 10 11 12 13 14 15 16
000
FTUS43 KBIS 240522
TAFJMS
TAF
KJMS 240522Z 2406/2506 29004KT P6SM FEW300
     FM241400 28014G22KT P6SM FEW250
     FM241900 28018G28KT P6SM SCT050
     FM250300 30010KT P6SM SCT050=

USA.gov is the U.S. government's official web portal to all federal, state and local government web resources and services.